Time;durP1;ratioP1;P1;durP2;ratioP2;P2;SDS_P1;SDS_P2;PMS_P1;PMS_P2;Temp;Humidity;BMP_temperature;BMP_pressure;BME280_temperature;BME280_humidity;BME280_pressure;Samples;Min_cycle;Max_cycle;Signal;HPM_P1;HPM_P2
2023/12/21 00:01:55;;;;;;;8.57;3.30;;;;;;;;;;5028168;28;20494;-65
2023/12/21 00:04:20;;;;;;;7.70;3.10;;;;;;;;;;5027445;28;20481;-65
2023/12/21 00:06:46;;;;;;;9.97;4.00;;;;;;;;;;5027326;28;20422;-65
2023/12/21 00:09:11;;;;;;;8.23;3.07;;;;;;;;;;5026743;28;20403;-65
2023/12/21 00:11:36;;;;;;;7.57;3.58;;;;;;;;;;5028046;28;20487;-65
2023/12/21 00:14:02;;;;;;;8.43;3.30;;;;;;;;;;5026618;28;20410;-65
2023/12/21 00:16:27;;;;;;;10.67;3.40;;;;;;;;;;5028113;28;20477;-65
2023/12/21 00:18:53;;;;;;;8.40;3.03;;;;;;;;;;5026979;28;20412;-65
2023/12/21 00:21:18;;;;;;;9.65;3.00;;;;;;;;;;5026355;28;20446;-65
2023/12/21 00:23:44;;;;;;;9.80;3.60;;;;;;;;;;5027838;28;20418;-65
2023/12/21 00:26:09;;;;;;;10.75;3.30;;;;;;;;;;5027143;28;20413;-65
2023/12/21 00:28:35;;;;;;;8.93;3.17;;;;;;;;;;5026784;28;20423;-65
2023/12/21 00:31:00;;;;;;;9.32;2.83;;;;;;;;;;5027789;28;20700;-64
2023/12/21 00:33:25;;;;;;;8.53;2.90;;;;;;;;;;5026888;28;20409;-64
2023/12/21 00:35:51;;;;;;;9.47;3.10;;;;;;;;;;5042034;28;20395;-64
2023/12/21 00:38:16;;;;;;;9.50;3.10;;;;;;;;;;5026485;28;20407;-65
2023/12/21 00:40:41;;;;;;;12.17;3.60;;;;;;;;;;5026985;28;20407;-65
2023/12/21 00:43:06;;;;;;;11.60;3.42;;;;;;;;;;5026670;28;20534;-65
2023/12/21 00:45:32;;;;;;;12.47;4.03;;;;;;;;;;5027394;28;20411;-64
2023/12/21 00:47:57;;;;;;;10.33;3.37;;;;;;;;;;5021629;28;20784;-65
2023/12/21 00:50:22;;;;;;;9.50;3.13;;;;;;;;;;5026536;28;20395;-65
2023/12/21 00:52:48;;;;;;;12.87;3.97;;;;;;;;;;5027574;28;20403;-65
2023/12/21 00:55:13;;;;;;;11.88;3.88;;;;;;;;;;5026341;28;20403;-65
2023/12/21 00:57:38;;;;;;;13.83;4.17;;;;;;;;;;5026184;28;20486;-64
2023/12/21 01:00:04;;;;;;;12.23;3.93;;;;;;;;;;5042113;28;20665;-65
2023/12/21 01:02:29;;;;;;;10.80;3.72;;;;;;;;;;5026659;28;20470;-65
2023/12/21 01:04:54;;;;;;;12.17;4.07;;;;;;;;;;5026470;28;21152;-64
2023/12/21 01:07:20;;;;;;;12.17;4.60;;;;;;;;;;5026383;28;20382;-64
2023/12/21 01:09:45;;;;;;;11.87;3.90;;;;;;;;;;5025586;28;20418;-64
2023/12/21 01:12:10;;;;;;;12.57;3.93;;;;;;;;;;5026553;28;20852;-65
2023/12/21 01:14:35;;;;;;;13.15;3.97;;;;;;;;;;5027099;28;20383;-65
2023/12/21 01:17:01;;;;;;;12.23;3.87;;;;;;;;;;5025632;28;20838;-65
2023/12/21 01:19:27;;;;;;;13.43;4.20;;;;;;;;;;5026006;28;20391;-65
2023/12/21 01:21:52;;;;;;;10.77;4.00;;;;;;;;;;5026585;28;20399;-65
2023/12/21 01:24:17;;;;;;;11.40;3.90;;;;;;;;;;5025877;28;20414;-65
2023/12/21 01:26:43;;;;;;;12.77;4.03;;;;;;;;;;5026754;28;20442;-64
2023/12/21 01:29:08;;;;;;;12.60;3.90;;;;;;;;;;5025498;28;20395;-65
2023/12/21 01:31:33;;;;;;;12.45;4.28;;;;;;;;;;5025871;28;20883;-65
2023/12/21 01:33:59;;;;;;;11.07;4.10;;;;;;;;;;5026253;28;20403;-65
2023/12/21 01:36:26;;;;;;;11.77;4.57;;;;;;;;;;5025749;28;20406;-65
2023/12/21 01:38:51;;;;;;;13.98;4.50;;;;;;;;;;5025750;28;20457;-65
2023/12/21 01:41:17;;;;;;;13.90;4.83;;;;;;;;;;5025913;28;20685;-65
2023/12/21 01:43:42;;;;;;;15.07;5.20;;;;;;;;;;5026084;28;20403;-65
2023/12/21 01:46:07;;;;;;;12.47;4.63;;;;;;;;;;5025849;28;20841;-65
2023/12/21 01:48:32;;;;;;;11.13;4.10;;;;;;;;;;5020529;28;20406;-65
2023/12/21 01:50:58;;;;;;;12.43;4.20;;;;;;;;;;5040895;28;20838;-65
2023/12/21 01:53:23;;;;;;;10.85;3.60;;;;;;;;;;5025610;28;20440;-65
2023/12/21 01:55:48;;;;;;;12.87;4.30;;;;;;;;;;5026362;28;20399;-65
2023/12/21 01:58:14;;;;;;;9.70;3.53;;;;;;;;;;5024650;28;20918;-65
2023/12/21 02:00:39;;;;;;;10.43;4.37;;;;;;;;;;5026194;28;20410;-65
2023/12/21 02:03:04;;;;;;;9.50;3.93;;;;;;;;;;5024541;28;20410;-65
2023/12/21 02:05:29;;;;;;;11.37;3.83;;;;;;;;;;5025470;28;20945;-65
2023/12/21 02:07:55;;;;;;;11.05;4.38;;;;;;;;;;5025409;28;20852;-65
2023/12/21 02:10:20;;;;;;;12.77;3.90;;;;;;;;;;5025961;28;20414;-65
2023/12/21 02:12:45;;;;;;;12.43;3.80;;;;;;;;;;5025529;28;20418;-65
2023/12/21 02:15:11;;;;;;;12.53;4.20;;;;;;;;;;5025968;28;20411;-65
2023/12/21 02:17:36;;;;;;;13.77;3.93;;;;;;;;;;5025682;28;20815;-65
2023/12/21 02:20:01;;;;;;;13.23;4.15;;;;;;;;;;5023317;28;20908;-66
2023/12/21 02:22:27;;;;;;;12.93;4.07;;;;;;;;;;5026398;28;20887;-65
2023/12/21 02:24:52;;;;;;;14.37;3.90;;;;;;;;;;5024697;28;20489;-65
2023/12/21 02:27:17;;;;;;;12.70;3.90;;;;;;;;;;5025080;28;20774;-65
2023/12/21 02:29:43;;;;;;;11.57;3.70;;;;;;;;;;5025504;28;20395;-65
2023/12/21 02:32:08;;;;;;;13.27;3.90;;;;;;;;;;5025595;28;20461;-65
2023/12/21 02:34:33;;;;;;;11.37;3.40;;;;;;;;;;5023993;28;20398;-65
2023/12/21 02:36:59;;;;;;;12.30;3.50;;;;;;;;;;5025892;28;20395;-65
2023/12/21 02:39:24;;;;;;;15.85;3.70;;;;;;;;;;5024703;28;20798;-65
2023/12/21 02:41:51;;;;;;;14.63;3.50;;;;;;;;;;5025445;28;20777;-65
2023/12/21 02:44:16;;;;;;;14.63;4.43;;;;;;;;;;5025396;28;20403;-65
2023/12/21 02:46:42;;;;;;;11.27;3.13;;;;;;;;;;5025499;28;20414;-65
2023/12/21 02:49:07;;;;;;;11.80;3.20;;;;;;;;;;5019954;28;20486;-65
2023/12/21 02:51:32;;;;;;;12.33;3.20;;;;;;;;;;5024560;28;20430;-65
2023/12/21 02:53:58;;;;;;;10.20;2.90;;;;;;;;;;5025301;28;20473;-65
2023/12/21 02:56:23;;;;;;;12.40;3.67;;;;;;;;;;5024787;28;20395;-65
2023/12/21 02:58:48;;;;;;;9.93;3.23;;;;;;;;;;5025375;28;20403;-65
2023/12/21 03:01:13;;;;;;;10.83;2.97;;;;;;;;;;5028394;28;20502;-65
2023/12/21 03:03:39;;;;;;;11.00;3.37;;;;;;;;;;5028922;28;20407;-65
2023/12/21 03:06:04;;;;;;;11.33;3.47;;;;;;;;;;5028908;28;20395;-65
2023/12/21 03:08:29;;;;;;;11.33;3.80;;;;;;;;;;5027926;28;20486;-65
2023/12/21 03:10:55;;;;;;;14.20;3.90;;;;;;;;;;5028771;28;20383;-65
2023/12/21 03:13:20;;;;;;;10.77;3.33;;;;;;;;;;5028664;28;20418;-65
2023/12/21 03:15:45;;;;;;;13.27;3.83;;;;;;;;;;5028786;28;20406;-65
2023/12/21 03:18:10;;;;;;;11.50;3.55;;;;;;;;;;5027370;28;20506;-65
2023/12/21 03:20:36;;;;;;;12.40;3.80;;;;;;;;;;5029249;28;20452;-65
2023/12/21 03:23:01;;;;;;;11.13;3.83;;;;;;;;;;5027598;28;20414;-65
2023/12/21 03:25:27;;;;;;;13.18;3.78;;;;;;;;;;5028752;28;20453;-65
2023/12/21 03:27:52;;;;;;;14.70;3.70;;;;;;;;;;5028426;28;20399;-65
2023/12/21 03:30:17;;;;;;;12.27;3.83;;;;;;;;;;5027886;28;20431;-65
2023/12/21 03:32:43;;;;;;;14.73;3.97;;;;;;;;;;5028616;28;20430;-65
2023/12/21 03:35:08;;;;;;;11.57;3.40;;;;;;;;;;5028157;28;20767;-65
2023/12/21 03:37:33;;;;;;;15.30;3.77;;;;;;;;;;5027182;28;20395;-65
2023/12/21 03:39:59;;;;;;;17.33;3.60;;;;;;;;;;5028531;28;20434;-65
2023/12/21 03:42:24;;;;;;;15.20;3.63;;;;;;;;;;5028274;28;20481;-65
2023/12/21 03:44:49;;;;;;;11.77;3.50;;;;;;;;;;5027674;28;20430;-64
2023/12/21 03:47:15;;;;;;;11.67;3.30;;;;;;;;;;5026792;28;20746;-65
2023/12/21 03:49:40;;;;;;;13.73;3.40;;;;;;;;;;5022832;28;20407;-65
2023/12/21 03:52:06;;;;;;;14.17;3.90;;;;;;;;;;5026052;28;20486;-65
2023/12/21 03:54:31;;;;;;;13.23;4.20;;;;;;;;;;5027042;28;20391;-65
2023/12/21 03:56:56;;;;;;;12.40;3.57;;;;;;;;;;5027782;28;20446;-65
2023/12/21 03:59:21;;;;;;;13.67;3.63;;;;;;;;;;5026363;28;20889;-65
2023/12/21 04:01:47;;;;;;;14.57;4.20;;;;;;;;;;5028476;28;20407;-65
2023/12/21 04:04:12;;;;;;;15.00;3.90;;;;;;;;;;5026917;28;20407;-65
2023/12/21 04:06:37;;;;;;;13.03;3.93;;;;;;;;;;5028252;28;20490;-65
2023/12/21 04:09:02;;;;;;;13.80;4.00;;;;;;;;;;5026761;28;20415;-65
2023/12/21 04:11:28;;;;;;;14.20;3.97;;;;;;;;;;5026822;28;20402;-65
2023/12/21 04:13:54;;;;;;;13.23;3.97;;;;;;;;;;5028006;28;20426;-65
2023/12/21 04:16:19;;;;;;;16.33;4.33;;;;;;;;;;5027599;28;20897;-65
2023/12/21 04:18:44;;;;;;;15.40;4.00;;;;;;;;;;5025094;28;20922;-65
2023/12/21 04:21:09;;;;;;;15.07;4.27;;;;;;;;;;5025975;28;20498;-65
2023/12/21 04:23:35;;;;;;;14.80;4.13;;;;;;;;;;5027766;28;20425;-65
2023/12/21 04:26:00;;;;;;;14.83;4.10;;;;;;;;;;5027029;28;20412;-65
2023/12/21 04:28:27;;;;;;;14.53;4.07;;;;;;;;;;5025947;28;26200;-65
2023/12/21 04:30:52;;;;;;;12.65;3.70;;;;;;;;;;5027693;28;20920;-65
2023/12/21 04:33:18;;;;;;;13.23;3.47;;;;;;;;;;5026434;28;20461;-65
2023/12/21 04:35:44;;;;;;;15.77;3.90;;;;;;;;;;5027883;28;20404;-65
2023/12/21 04:38:09;;;;;;;13.85;3.85;;;;;;;;;;5025387;28;20415;-65
2023/12/21 04:40:34;;;;;;;15.20;3.47;;;;;;;;;;5026814;28;20472;-65
2023/12/21 04:42:59;;;;;;;13.23;3.20;;;;;;;;;;5027597;28;20391;-64
2023/12/21 04:45:25;;;;;;;11.53;3.70;;;;;;;;;;5026855;28;20474;-64
2023/12/21 04:47:50;;;;;;;14.15;3.38;;;;;;;;;;5011176;28;20417;-64
2023/12/21 04:50:15;;;;;;;11.40;3.60;;;;;;;;;;4994239;28;20417;-64
2023/12/21 04:52:41;;;;;;;14.70;3.53;;;;;;;;;;4998314;28;20416;-64
2023/12/21 04:55:07;;;;;;;16.20;3.80;;;;;;;;;;4993746;28;20737;-64
2023/12/21 04:57:32;;;;;;;15.07;3.90;;;;;;;;;;4992644;28;20392;-64
2023/12/21 04:59:57;;;;;;;15.13;3.57;;;;;;;;;;4991524;28;20423;-64
2023/12/21 05:02:22;;;;;;;14.73;3.40;;;;;;;;;;4992801;28;20455;-64
2023/12/21 05:04:48;;;;;;;13.50;3.53;;;;;;;;;;4998218;28;20405;-64
2023/12/21 05:07:13;;;;;;;13.10;3.43;;;;;;;;;;4997482;28;20534;-64
2023/12/21 05:09:38;;;;;;;13.03;3.37;;;;;;;;;;4996850;28;20440;-64
2023/12/21 05:12:04;;;;;;;15.40;3.93;;;;;;;;;;4997557;28;20454;-64
2023/12/21 05:14:29;;;;;;;14.38;3.55;;;;;;;;;;5012729;28;20392;-63
2023/12/21 05:16:55;;;;;;;14.43;3.90;;;;;;;;;;5030758;28;20819;-65
2023/12/21 05:19:20;;;;;;;15.80;3.53;;;;;;;;;;5009442;28;20406;-64
2023/12/21 05:21:45;;;;;;;15.73;3.13;;;;;;;;;;5001472;28;20686;-64
2023/12/21 05:24:10;;;;;;;16.03;3.40;;;;;;;;;;4989958;28;20837;-64
2023/12/21 05:26:36;;;;;;;12.50;3.20;;;;;;;;;;5011512;28;20466;-64
2023/12/21 05:29:02;;;;;;;13.83;3.60;;;;;;;;;;4996398;28;20672;-65
2023/12/21 05:31:27;;;;;;;14.48;3.38;;;;;;;;;;4997802;28;20401;-64
2023/12/21 05:33:52;;;;;;;15.07;3.53;;;;;;;;;;4997401;28;20734;-64
2023/12/21 05:36:19;;;;;;;13.70;3.43;;;;;;;;;;4997037;28;20399;-64
2023/12/21 05:38:45;;;;;;;11.85;3.20;;;;;;;;;;4996283;28;20467;-64
2023/12/21 05:41:10;;;;;;;14.20;3.40;;;;;;;;;;4991865;28;20812;-65
2023/12/21 05:43:37;;;;;;;12.02;3.20;;;;;;;;;;5010817;28;20699;-64
2023/12/21 05:46:02;;;;;;;10.75;3.15;;;;;;;;;;4990964;28;20811;-65
2023/12/21 05:48:27;;;;;;;12.97;3.37;;;;;;;;;;4990725;28;20636;-64
2023/12/21 05:50:53;;;;;;;13.48;3.55;;;;;;;;;;4996832;28;20581;-64
2023/12/21 05:53:18;;;;;;;11.37;3.43;;;;;;;;;;5001922;28;20488;-64
2023/12/21 05:55:43;;;;;;;14.23;3.57;;;;;;;;;;5023538;28;20407;-64
2023/12/21 05:58:08;;;;;;;16.47;3.90;;;;;;;;;;5024136;28;20431;-65
2023/12/21 06:00:36;;;;;;;11.97;3.37;;;;;;;;;;5026518;28;20482;-64
2023/12/21 06:03:01;;;;;;;13.90;3.65;;;;;;;;;;5025456;28;20494;-65
2023/12/21 06:05:27;;;;;;;14.27;3.70;;;;;;;;;;5025796;28;20482;-64
2023/12/21 06:07:52;;;;;;;14.23;3.43;;;;;;;;;;5025305;28;20457;-64
2023/12/21 06:10:17;;;;;;;10.77;2.92;;;;;;;;;;5025728;28;20496;-64
2023/12/21 06:12:43;;;;;;;12.17;3.07;;;;;;;;;;5025618;28;20490;-64
2023/12/21 06:15:08;;;;;;;11.37;2.73;;;;;;;;;;5025812;28;20770;-65
2023/12/21 06:17:34;;;;;;;10.60;3.00;;;;;;;;;;5025267;28;20507;-64
2023/12/21 06:19:59;;;;;;;9.23;2.60;;;;;;;;;;5020877;28;20399;-64
2023/12/21 06:22:24;;;;;;;8.97;2.60;;;;;;;;;;4997027;28;20393;-64
2023/12/21 06:24:49;;;;;;;9.17;2.53;;;;;;;;;;4996574;28;20416;-64
2023/12/21 06:27:15;;;;;;;8.40;3.03;;;;;;;;;;4996761;28;20493;-64
2023/12/21 06:29:42;;;;;;;8.13;2.80;;;;;;;;;;5000949;28;20400;-64
2023/12/21 06:32:07;;;;;;;9.88;2.60;;;;;;;;;;4988933;28;20405;-64
2023/12/21 06:34:33;;;;;;;10.10;2.60;;;;;;;;;;4991157;28;20760;-64
2023/12/21 06:36:59;;;;;;;8.83;2.43;;;;;;;;;;4994707;28;20876;-64
2023/12/21 06:39:24;;;;;;;9.75;2.58;;;;;;;;;;4999334;28;20396;-64
2023/12/21 06:41:49;;;;;;;6.73;2.20;;;;;;;;;;5000501;28;21046;-64
2023/12/21 06:44:15;;;;;;;8.07;2.30;;;;;;;;;;5000873;28;21270;-64
2023/12/21 06:46:40;;;;;;;6.90;2.50;;;;;;;;;;4999744;28;20396;-64
2023/12/21 06:49:08;;;;;;;7.83;2.40;;;;;;;;;;5014043;28;20395;-65
2023/12/21 06:51:33;;;;;;;9.95;2.67;;;;;;;;;;5010604;28;20757;-63
2023/12/21 06:53:58;;;;;;;8.63;2.60;;;;;;;;;;4994473;28;20400;-63
2023/12/21 06:56:23;;;;;;;9.00;2.60;;;;;;;;;;4992502;28;20393;-64
2023/12/21 06:58:49;;;;;;;9.00;2.73;;;;;;;;;;4990898;28;20668;-63
2023/12/21 07:01:14;;;;;;;9.13;2.40;;;;;;;;;;4997806;28;20400;-64
2023/12/21 07:03:39;;;;;;;9.30;3.00;;;;;;;;;;5000209;28;20405;-63
2023/12/21 07:06:05;;;;;;;9.43;3.03;;;;;;;;;;5000178;28;20417;-64
2023/12/21 07:08:30;;;;;;;9.47;3.27;;;;;;;;;;4998497;28;20782;-64
2023/12/21 07:10:56;;;;;;;9.63;3.20;;;;;;;;;;5000521;28;20432;-64
2023/12/21 07:13:21;;;;;;;11.07;3.60;;;;;;;;;;5015110;28;21000;-64
2023/12/21 07:15:46;;;;;;;9.10;2.90;;;;;;;;;;5023711;28;20435;-64
2023/12/21 07:18:11;;;;;;;11.33;3.53;;;;;;;;;;5027191;28;20423;-63
2023/12/21 07:20:37;;;;;;;11.30;3.43;;;;;;;;;;5028758;28;20490;-64
2023/12/21 07:23:02;;;;;;;10.67;3.27;;;;;;;;;;5027471;28;20395;-64
2023/12/21 07:25:27;;;;;;;10.85;3.45;;;;;;;;;;5028923;28;20855;-64
2023/12/21 07:27:53;;;;;;;11.27;3.50;;;;;;;;;;5028042;28;20894;-64
2023/12/21 07:30:19;;;;;;;9.70;3.10;;;;;;;;;;5027839;28;20728;-64
2023/12/21 07:32:44;;;;;;;10.60;2.60;;;;;;;;;;5028669;28;20407;-64
2023/12/21 07:35:10;;;;;;;12.70;3.13;;;;;;;;;;5027822;28;20445;-65
2023/12/21 07:37:36;;;;;;;10.57;3.00;;;;;;;;;;5027550;28;20506;-65
2023/12/21 07:40:01;;;;;;;12.23;3.00;;;;;;;;;;5028270;28;20761;-66
2023/12/21 07:42:27;;;;;;;9.20;2.80;;;;;;;;;;5026482;28;20391;-65
2023/12/21 07:44:52;;;;;;;10.65;2.50;;;;;;;;;;5027938;28;20411;-65
2023/12/21 07:47:18;;;;;;;10.97;2.87;;;;;;;;;;5026407;28;20448;-65
2023/12/21 07:49:43;;;;;;;9.97;2.57;;;;;;;;;;5021604;28;20407;-66
2023/12/21 07:52:09;;;;;;;11.45;3.00;;;;;;;;;;5026393;28;20405;-67
2023/12/21 07:54:34;;;;;;;9.70;2.50;;;;;;;;;;5028354;28;20403;-66
2023/12/21 07:56:59;;;;;;;9.37;2.23;;;;;;;;;;5026003;28;20790;-66
2023/12/21 07:59:24;;;;;;;9.40;2.40;;;;;;;;;;5027122;28;20406;-65
2023/12/21 08:01:50;;;;;;;7.47;2.40;;;;;;;;;;5027020;28;20826;-66
2023/12/21 08:04:16;;;;;;;8.57;2.40;;;;;;;;;;5025733;28;20419;-66
2023/12/21 08:06:41;;;;;;;8.63;2.30;;;;;;;;;;5027782;28;20727;-66
2023/12/21 08:09:06;;;;;;;10.27;2.50;;;;;;;;;;5026748;28;20403;-66
2023/12/21 08:11:32;;;;;;;8.33;2.30;;;;;;;;;;5026937;28;20426;-66
2023/12/21 08:13:57;;;;;;;8.57;2.00;;;;;;;;;;5017881;28;20404;-65
2023/12/21 08:16:22;;;;;;;10.30;2.43;;;;;;;;;;5031280;28;20453;-65
2023/12/21 08:18:48;;;;;;;9.20;2.40;;;;;;;;;;5026152;28;20454;-66
2023/12/21 08:21:13;;;;;;;8.07;2.33;;;;;;;;;;5026850;28;20759;-66
2023/12/21 08:23:39;;;;;;;8.23;2.10;;;;;;;;;;5027739;28;20423;-66
2023/12/21 08:26:05;;;;;;;7.82;1.80;;;;;;;;;;5028407;28;20406;-66
2023/12/21 08:28:31;;;;;;;7.38;1.70;;;;;;;;;;5046994;28;20390;-65
2023/12/21 08:30:56;;;;;;;6.97;1.80;;;;;;;;;;5046138;28;20408;-65
2023/12/21 08:33:22;;;;;;;5.40;1.53;;;;;;;;;;5046541;28;21189;-65
2023/12/21 08:35:47;;;;;;;5.83;1.60;;;;;;;;;;5030708;28;20391;-65
2023/12/21 08:38:12;;;;;;;7.23;1.60;;;;;;;;;;5026625;28;20403;-64
2023/12/21 08:40:37;;;;;;;5.57;1.40;;;;;;;;;;5025974;28;20414;-64
2023/12/21 08:43:03;;;;;;;5.00;1.47;;;;;;;;;;5026894;28;20478;-65
2023/12/21 08:45:28;;;;;;;4.93;1.33;;;;;;;;;;5026887;28;20414;-65
2023/12/21 08:47:54;;;;;;;4.57;1.20;;;;;;;;;;5021738;28;20499;-65
2023/12/21 08:50:19;;;;;;;5.35;1.77;;;;;;;;;;5027119;28;20391;-65
2023/12/21 08:52:45;;;;;;;4.33;1.20;;;;;;;;;;5025792;28;20502;-65
2023/12/21 08:55:10;;;;;;;5.03;1.20;;;;;;;;;;5026975;28;20399;-65
2023/12/21 08:57:37;;;;;;;3.87;1.07;;;;;;;;;;5026390;28;20743;-65
2023/12/21 09:00:05;;;;;;;3.65;1.30;;;;;;;;;;5026128;28;20500;-65
2023/12/21 09:02:31;;;;;;;3.90;1.20;;;;;;;;;;5025626;28;20457;-64
2023/12/21 09:04:56;;;;;;;5.03;1.20;;;;;;;;;;5042238;28;20414;-64
2023/12/21 09:07:24;;;;;;;6.32;1.42;;;;;;;;;;5025932;28;20399;-65
2023/12/21 09:09:49;;;;;;;5.43;1.27;;;;;;;;;;5026227;28;20398;-65
2023/12/21 09:12:15;;;;;;;3.63;1.00;;;;;;;;;;5025476;28;20775;-65
2023/12/21 09:14:40;;;;;;;3.03;1.05;;;;;;;;;;5026140;28;20395;-65
2023/12/21 09:17:06;;;;;;;3.17;1.03;;;;;;;;;;5025552;28;20407;-65
2023/12/21 09:19:34;;;;;;;3.97;1.10;;;;;;;;;;5026107;28;20736;-65
2023/12/21 09:22:00;;;;;;;4.00;1.10;;;;;;;;;;5024967;28;20414;-63
2023/12/21 09:24:25;;;;;;;5.67;1.27;;;;;;;;;;5026385;28;20778;-65
2023/12/21 09:26:50;;;;;;;5.18;1.40;;;;;;;;;;5027053;28;20407;-65
2023/12/21 09:29:16;;;;;;;5.50;1.27;;;;;;;;;;5023164;28;20452;-65
2023/12/21 09:31:41;;;;;;;4.57;1.30;;;;;;;;;;5026737;28;20403;-65
2023/12/21 09:34:07;;;;;;;6.67;1.60;;;;;;;;;;5026340;28;20494;-65
2023/12/21 09:36:33;;;;;;;5.90;1.20;;;;;;;;;;5025929;28;20471;-64
2023/12/21 09:38:58;;;;;;;5.57;1.40;;;;;;;;;;5025965;28;20573;-65
2023/12/21 09:41:23;;;;;;;6.03;1.33;;;;;;;;;;5026081;28;20387;-65
2023/12/21 09:43:49;;;;;;;6.83;1.40;;;;;;;;;;5025853;28;20973;-65
2023/12/21 09:46:14;;;;;;;4.90;1.30;;;;;;;;;;5024430;28;20395;-65
2023/12/21 09:48:40;;;;;;;5.93;1.25;;;;;;;;;;5019699;28;20411;-65
2023/12/21 09:51:05;;;;;;;6.23;1.23;;;;;;;;;;5024272;28;20586;-65
2023/12/21 09:53:31;;;;;;;6.40;1.20;;;;;;;;;;5026620;28;20399;-65
2023/12/21 09:55:57;;;;;;;7.60;1.33;;;;;;;;;;5024630;28;20410;-65
2023/12/21 09:58:22;;;;;;;5.07;1.23;;;;;;;;;;5024131;28;20857;-65
2023/12/21 10:00:47;;;;;;;6.60;1.20;;;;;;;;;;5025078;28;20478;-65
2023/12/21 10:03:13;;;;;;;6.27;1.40;;;;;;;;;;5023752;28;20886;-65
2023/12/21 10:05:40;;;;;;;7.90;1.40;;;;;;;;;;5024963;28;20395;-65
2023/12/21 10:08:05;;;;;;;7.73;1.80;;;;;;;;;;5025147;28;20446;-65
2023/12/21 10:10:30;;;;;;;7.70;1.42;;;;;;;;;;5026953;28;20944;-65
2023/12/21 10:12:56;;;;;;;7.13;1.20;;;;;;;;;;5030595;28;20453;-65
2023/12/21 10:15:21;;;;;;;8.60;1.13;;;;;;;;;;5029489;28;20399;-64
2023/12/21 10:17:46;;;;;;;7.17;1.40;;;;;;;;;;5028923;28;20414;-65
2023/12/21 10:20:12;;;;;;;7.03;1.40;;;;;;;;;;5029358;28;20399;-65
2023/12/21 10:22:39;;;;;;;6.20;1.13;;;;;;;;;;5033100;28;20403;-64
2023/12/21 10:25:04;;;;;;;8.30;1.48;;;;;;;;;;5028963;28;20565;-65
2023/12/21 10:27:29;;;;;;;6.23;1.10;;;;;;;;;;5028116;28;20957;-65
2023/12/21 10:29:55;;;;;;;5.83;1.63;;;;;;;;;;5029941;28;20395;-64
2023/12/21 10:32:21;;;;;;;4.90;1.08;;;;;;;;;;5028793;28;20398;-65
2023/12/21 10:34:47;;;;;;;5.43;1.00;;;;;;;;;;5029807;28;20399;-64
2023/12/21 10:37:13;;;;;;;7.37;1.00;;;;;;;;;;5029357;28;20419;-65
2023/12/21 10:39:38;;;;;;;6.28;1.10;;;;;;;;;;5028488;28;20454;-64
2023/12/21 10:42:04;;;;;;;5.73;1.20;;;;;;;;;;5044757;28;20419;-65
2023/12/21 10:44:29;;;;;;;4.43;1.15;;;;;;;;;;5029758;28;20520;-64
2023/12/21 10:46:54;;;;;;;6.43;1.03;;;;;;;;;;5028465;28;20418;-65
2023/12/21 10:49:20;;;;;;;4.60;0.80;;;;;;;;;;5022592;28;20407;-65
2023/12/21 10:51:46;;;;;;;4.05;1.05;;;;;;;;;;5029635;28;20553;-64
2023/12/21 10:54:12;;;;;;;5.10;1.10;;;;;;;;;;5028523;28;20419;-64
2023/12/21 10:56:38;;;;;;;4.85;0.85;;;;;;;;;;5029554;28;20985;-64
2023/12/21 10:59:05;;;;;;;4.90;0.90;;;;;;;;;;5027803;28;20428;-66
2023/12/21 11:01:30;;;;;;;5.57;1.00;;;;;;;;;;5029101;28;20383;-65
2023/12/21 11:03:57;;;;;;;6.73;1.17;;;;;;;;;;5037032;28;20426;-64
2023/12/21 11:06:22;;;;;;;7.38;1.13;;;;;;;;;;5027613;28;20861;-64
2023/12/21 11:08:48;;;;;;;5.53;0.93;;;;;;;;;;5028231;28;20407;-64
2023/12/21 11:11:15;;;;;;;5.97;1.20;;;;;;;;;;5026946;28;20431;-64
2023/12/21 11:13:42;;;;;;;5.47;1.15;;;;;;;;;;5027866;28;20414;-64
2023/12/21 11:16:08;;;;;;;6.50;1.13;;;;;;;;;;5042150;28;20395;-64
2023/12/21 11:18:34;;;;;;;6.22;1.20;;;;;;;;;;5043087;28;20446;-64
2023/12/21 11:20:59;;;;;;;5.70;1.10;;;;;;;;;;5025771;28;20449;-64
2023/12/21 11:23:24;;;;;;;7.23;1.10;;;;;;;;;;5042567;28;20395;-64
2023/12/21 11:25:53;;;;;;;3.30;0.83;;;;;;;;;;5027812;28;20432;-64
2023/12/21 11:28:23;;;;;;;5.97;1.33;;;;;;;;;;5027229;28;20399;-64
2023/12/21 11:30:48;;;;;;;5.55;0.88;;;;;;;;;;5028736;28;21075;-64
2023/12/21 11:33:14;;;;;;;4.63;0.80;;;;;;;;;;5028290;28;20400;-64
2023/12/21 11:35:39;;;;;;;4.43;0.87;;;;;;;;;;5027915;28;20534;-64
2023/12/21 11:38:05;;;;;;;6.00;1.10;;;;;;;;;;5027777;28;20770;-64
2023/12/21 11:40:31;;;;;;;5.10;1.25;;;;;;;;;;5028824;28;20494;-64
2023/12/21 11:42:56;;;;;;;4.47;1.00;;;;;;;;;;5026732;28;20541;-64
2023/12/21 11:45:23;;;;;;;5.17;1.03;;;;;;;;;;5037732;28;20386;-63
2023/12/21 11:47:49;;;;;;;5.07;1.13;;;;;;;;;;5046530;28;20398;-64
2023/12/21 11:50:17;;;;;;;4.03;0.97;;;;;;;;;;5042843;28;20405;-64
2023/12/21 11:52:42;;;;;;;5.45;1.00;;;;;;;;;;5040697;28;20403;-64
2023/12/21 11:55:07;;;;;;;5.03;0.90;;;;;;;;;;5043211;28;20395;-64
2023/12/21 11:57:39;;;;;;;4.87;0.93;;;;;;;;;;5026877;28;20415;-65
2023/12/21 12:00:05;;;;;;;4.65;1.10;;;;;;;;;;5026223;28;20410;-65
2023/12/21 12:02:31;;;;;;;4.73;1.00;;;;;;;;;;5027472;28;20453;-64
2023/12/21 12:04:56;;;;;;;5.07;0.98;;;;;;;;;;5010069;28;20512;-64
2023/12/21 12:07:21;;;;;;;4.67;0.97;;;;;;;;;;5042561;28;20403;-64
2023/12/21 12:09:46;;;;;;;5.80;1.10;;;;;;;;;;5026876;28;20399;-64
2023/12/21 12:12:12;;;;;;;6.10;1.20;;;;;;;;;;5026458;28;20495;-64
2023/12/21 12:14:37;;;;;;;7.17;1.30;;;;;;;;;;5027793;28;20825;-65
2023/12/21 12:17:06;;;;;;;5.53;1.27;;;;;;;;;;5026734;28;20410;-65
2023/12/21 12:19:31;;;;;;;5.57;0.95;;;;;;;;;;5025937;28;20430;-65
2023/12/21 12:21:56;;;;;;;7.50;1.13;;;;;;;;;;5027802;28;20438;-64
2023/12/21 12:24:22;;;;;;;6.03;1.07;;;;;;;;;;5026607;28;20755;-64
2023/12/21 12:26:47;;;;;;;5.18;1.02;;;;;;;;;;5028096;28;20409;-64
2023/12/21 12:29:15;;;;;;;7.07;1.30;;;;;;;;;;5026304;28;20460;-65
2023/12/21 12:31:40;;;;;;;6.28;1.30;;;;;;;;;;5026906;28;20422;-65
2023/12/21 12:34:06;;;;;;;6.40;1.20;;;;;;;;;;5035534;28;20936;-65
2023/12/21 12:36:31;;;;;;;6.10;1.43;;;;;;;;;;5030934;28;20938;-64
2023/12/21 12:38:56;;;;;;;6.03;1.10;;;;;;;;;;5026330;28;20403;-64
2023/12/21 12:41:22;;;;;;;8.23;1.35;;;;;;;;;;5027164;28;20883;-64
2023/12/21 12:43:47;;;;;;;5.23;1.20;;;;;;;;;;5027609;28;20461;-64
2023/12/21 12:46:14;;;;;;;5.67;1.10;;;;;;;;;;5026111;28;20411;-64
2023/12/21 12:48:39;;;;;;;5.35;1.30;;;;;;;;;;5037550;28;20819;-64
2023/12/21 12:51:05;;;;;;;6.80;1.20;;;;;;;;;;5027098;28;20918;-64
2023/12/21 12:53:30;;;;;;;6.53;1.10;;;;;;;;;;5026592;28;20402;-64
2023/12/21 12:55:56;;;;;;;5.47;1.00;;;;;;;;;;5027209;28;20759;-65
2023/12/21 12:58:23;;;;;;;6.20;1.63;;;;;;;;;;5025980;28;20407;-64
2023/12/21 13:00:49;;;;;;;6.18;1.10;;;;;;;;;;5026271;28;20395;-64
2023/12/21 13:03:14;;;;;;;9.13;1.83;;;;;;;;;;5026634;28;20415;-67
2023/12/21 13:05:39;;;;;;;6.43;1.67;;;;;;;;;;5026432;28;20935;-64
2023/12/21 13:08:05;;;;;;;5.67;1.30;;;;;;;;;;5025913;28;20427;-65
2023/12/21 13:10:30;;;;;;;11.27;6.28;;;;;;;;;;5029448;28;20475;-64
2023/12/21 13:12:55;;;;;;;10.80;3.33;;;;;;;;;;5044653;28;20405;-64
2023/12/21 13:15:21;;;;;;;6.47;1.30;;;;;;;;;;5043344;28;20465;-64
2023/12/21 13:17:46;;;;;;;6.70;1.27;;;;;;;;;;5026449;28;20419;-64
2023/12/21 13:20:11;;;;;;;4.80;1.03;;;;;;;;;;5025707;28;20399;-65
2023/12/21 13:22:37;;;;;;;6.10;1.10;;;;;;;;;;5026878;28;20403;-64
2023/12/21 13:25:02;;;;;;;5.43;1.10;;;;;;;;;;5026244;28;20423;-66
2023/12/21 13:27:28;;;;;;;5.40;1.07;;;;;;;;;;5025546;28;20410;-66
2023/12/21 13:29:53;;;;;;;7.95;1.40;;;;;;;;;;5026428;28;20403;-66
2023/12/21 13:32:18;;;;;;;6.10;1.10;;;;;;;;;;5026332;28;20398;-64
2023/12/21 13:34:44;;;;;;;7.37;1.30;;;;;;;;;;5025918;28;20395;-65
2023/12/21 13:37:10;;;;;;;6.13;1.50;;;;;;;;;;5025991;28;20392;-64
2023/12/21 13:39:35;;;;;;;8.07;1.43;;;;;;;;;;5025817;28;20399;-64
2023/12/21 13:42:00;;;;;;;7.60;1.60;;;;;;;;;;5026020;28;20778;-66
2023/12/21 13:44:28;;;;;;;9.47;2.10;;;;;;;;;;5025244;28;20452;-64
2023/12/21 13:46:56;;;;;;;7.47;1.67;;;;;;;;;;5026551;28;20414;-64
2023/12/21 13:49:21;;;;;;;9.13;1.50;;;;;;;;;;5020204;28;20454;-64
2023/12/21 13:51:47;;;;;;;7.70;1.47;;;;;;;;;;5026473;28;20415;-65
2023/12/21 13:54:12;;;;;;;8.65;2.05;;;;;;;;;;5025704;28;20403;-64
2023/12/21 13:56:37;;;;;;;10.47;1.90;;;;;;;;;;5025427;28;20472;-63
2023/12/21 13:59:03;;;;;;;9.53;1.90;;;;;;;;;;5032010;28;20397;-63
2023/12/21 14:01:28;;;;;;;10.67;1.97;;;;;;;;;;5035955;28;20399;-63
2023/12/21 14:03:55;;;;;;;11.40;2.13;;;;;;;;;;5024555;28;20426;-63
2023/12/21 14:06:20;;;;;;;9.95;2.10;;;;;;;;;;5025695;28;20399;-63
2023/12/21 14:08:46;;;;;;;9.83;2.07;;;;;;;;;;5024430;28;20417;-63
2023/12/21 14:11:11;;;;;;;9.55;2.58;;;;;;;;;;5025162;28;20573;-63
2023/12/21 14:13:36;;;;;;;11.07;2.10;;;;;;;;;;5026065;28;20441;-63
2023/12/21 14:16:02;;;;;;;11.40;2.53;;;;;;;;;;5025305;28;20449;-65
2023/12/21 14:18:27;;;;;;;11.35;2.13;;;;;;;;;;5024154;28;20503;-64
2023/12/21 14:20:53;;;;;;;11.90;2.23;;;;;;;;;;5026115;28;20435;-64
2023/12/21 14:23:19;;;;;;;12.03;2.00;;;;;;;;;;5024728;28;20407;-64
2023/12/21 14:25:46;;;;;;;11.00;2.20;;;;;;;;;;5026124;28;20767;-64